KG-0029 weather

CLOSED Miyanfan Airport
Miyanfan, Chuy Region, Kyrgyzstan

Public forecast

Using degrees Celsius for public forecast. Weather courtesy of forecast.io.

METAR (pilot weather report)

Closest report is Manas International Airport, 17.4 nm (32.1 km) WNW. Retrieved 2019/03/26 09:30 UTC (16 minutes ago):

UCFM 260930Z 07003MPS CAVOK 24/M08 Q1015 R08/09//95 NOSIG

TAF (pilot weather forecast)

Closest forecast is Manas International Airport, 17.4 nm (32.1 km) WNW. Retrieved 2019/03/26 06:00 UTC (4 hours ago):

TAF COR UCFM 260447Z 2606/2706 08003G08MPS 9999 SCT050 TEMPO 2606/2612 12007G12MPS TEMPO 2614/2620 2000 BR FU TEMPO 2620/2703 2000 BR FU SCT010 BECMG 2705/2706 28003G08MPS SCT050CB